sensor_id;sensor_type;location;lat;lon;timestamp;P1;durP1;ratioP1;P2;durP2;ratioP2
52041;SDS011;38052;45.944;13.624;2022-08-03T00:00:42;1.95;;;1.33;;
52041;SDS011;38052;45.944;13.624;2022-08-03T00:03:09;1.60;;;1.20;;
52041;SDS011;38052;45.944;13.624;2022-08-03T00:05:36;1.58;;;0.90;;
52041;SDS011;38052;45.944;13.624;2022-08-03T00:08:02;3.28;;;1.27;;
52041;SDS011;38052;45.944;13.624;2022-08-03T00:10:28;2.10;;;1.35;;
52041;SDS011;38052;45.944;13.624;2022-08-03T00:12:55;2.58;;;1.20;;
52041;SDS011;38052;45.944;13.624;2022-08-03T00:15:21;2.92;;;1.30;;
52041;SDS011;38052;45.944;13.624;2022-08-03T00:17:48;1.67;;;1.10;;
52041;SDS011;38052;45.944;13.624;2022-08-03T00:20:14;2.05;;;1.13;;
52041;SDS011;38052;45.944;13.624;2022-08-03T00:22:40;2.92;;;1.17;;
52041;SDS011;38052;45.944;13.624;2022-08-03T00:25:06;3.17;;;1.20;;
52041;SDS011;38052;45.944;13.624;2022-08-03T00:27:34;1.08;;;0.85;;
52041;SDS011;38052;45.944;13.624;2022-08-03T00:30:00;0.98;;;0.75;;
52041;SDS011;38052;45.944;13.624;2022-08-03T00:32:27;1.65;;;1.48;;
52041;SDS011;38052;45.944;13.624;2022-08-03T00:34:54;2.72;;;1.23;;
52041;SDS011;38052;45.944;13.624;2022-08-03T00:37:21;5.07;;;1.27;;
52041;SDS011;38052;45.944;13.624;2022-08-03T00:40:10;1.27;;;1.05;;
52041;SDS011;38052;45.944;13.624;2022-08-03T00:42:47;2.00;;;0.98;;
52041;SDS011;38052;45.944;13.624;2022-08-03T00:45:14;3.08;;;1.20;;
52041;SDS011;38052;45.944;13.624;2022-08-03T00:47:41;2.78;;;1.20;;
52041;SDS011;38052;45.944;13.624;2022-08-03T00:50:07;3.60;;;1.00;;
52041;SDS011;38052;45.944;13.624;2022-08-03T00:52:34;1.95;;;1.17;;
52041;SDS011;38052;45.944;13.624;2022-08-03T00:55:02;1.42;;;0.80;;
52041;SDS011;38052;45.944;13.624;2022-08-03T00:57:28;3.30;;;1.55;;
52041;SDS011;38052;45.944;13.624;2022-08-03T00:59:55;1.35;;;1.08;;
52041;SDS011;38052;45.944;13.624;2022-08-03T01:02:21;3.28;;;1.25;;
52041;SDS011;38052;45.944;13.624;2022-08-03T01:04:47;2.20;;;1.15;;
52041;SDS011;38052;45.944;13.624;2022-08-03T01:07:16;1.67;;;1.00;;
52041;SDS011;38052;45.944;13.624;2022-08-03T01:09:54;1.60;;;0.90;;
52041;SDS011;38052;45.944;13.624;2022-08-03T01:12:29;1.23;;;1.00;;
52041;SDS011;38052;45.944;13.624;2022-08-03T01:17:33;2.25;;;1.08;;
52041;SDS011;38052;45.944;13.624;2022-08-03T01:20:06;1.48;;;1.15;;
52041;SDS011;38052;45.944;13.624;2022-08-03T01:22:39;1.83;;;1.10;;
52041;SDS011;38052;45.944;13.624;2022-08-03T01:25:23;2.70;;;0.95;;
52041;SDS011;38052;45.944;13.624;2022-08-03T01:30:39;2.10;;;1.15;;
52041;SDS011;38052;45.944;13.624;2022-08-03T01:33:54;2.80;;;1.33;;
52041;SDS011;38052;45.944;13.624;2022-08-03T01:35:58;1.77;;;1.50;;
52041;SDS011;38052;45.944;13.624;2022-08-03T01:38:33;2.42;;;1.20;;
52041;SDS011;38052;45.944;13.624;2022-08-03T01:41:03;3.55;;;1.10;;
52041;SDS011;38052;45.944;13.624;2022-08-03T01:43:31;2.90;;;1.30;;
52041;SDS011;38052;45.944;13.624;2022-08-03T01:45:57;1.95;;;1.40;;
52041;SDS011;38052;45.944;13.624;2022-08-03T01:48:24;3.35;;;1.52;;
52041;SDS011;38052;45.944;13.624;2022-08-03T01:50:51;2.45;;;1.05;;
52041;SDS011;38052;45.944;13.624;2022-08-03T01:53:20;1.48;;;0.90;;
52041;SDS011;38052;45.944;13.624;2022-08-03T01:55:48;2.90;;;1.27;;
52041;SDS011;38052;45.944;13.624;2022-08-03T01:58:17;1.80;;;1.07;;
52041;SDS011;38052;45.944;13.624;2022-08-03T02:00:45;2.85;;;0.88;;
52041;SDS011;38052;45.944;13.624;2022-08-03T02:03:13;2.28;;;1.20;;
52041;SDS011;38052;45.944;13.624;2022-08-03T02:05:40;2.88;;;1.15;;
52041;SDS011;38052;45.944;13.624;2022-08-03T02:08:09;1.80;;;1.02;;
52041;SDS011;38052;45.944;13.624;2022-08-03T02:10:38;2.15;;;1.20;;
52041;SDS011;38052;45.944;13.624;2022-08-03T02:13:05;2.15;;;0.90;;
52041;SDS011;38052;45.944;13.624;2022-08-03T02:15:33;2.17;;;0.85;;
52041;SDS011;38052;45.944;13.624;2022-08-03T02:18:00;2.00;;;0.80;;
52041;SDS011;38052;45.944;13.624;2022-08-03T02:20:28;2.20;;;1.20;;
52041;SDS011;38052;45.944;13.624;2022-08-03T02:22:57;2.90;;;1.02;;
52041;SDS011;38052;45.944;13.624;2022-08-03T02:25:23;1.42;;;0.75;;
52041;SDS011;38052;45.944;13.624;2022-08-03T02:27:50;1.95;;;1.02;;
52041;SDS011;38052;45.944;13.624;2022-08-03T02:30:17;2.72;;;0.82;;
52041;SDS011;38052;45.944;13.624;2022-08-03T02:32:46;2.85;;;1.10;;
52041;SDS011;38052;45.944;13.624;2022-08-03T02:35:14;2.15;;;1.23;;
52041;SDS011;38052;45.944;13.624;2022-08-03T02:37:43;2.80;;;1.10;;
52041;SDS011;38052;45.944;13.624;2022-08-03T02:40:11;2.10;;;1.33;;
52041;SDS011;38052;45.944;13.624;2022-08-03T02:42:38;3.03;;;1.20;;
52041;SDS011;38052;45.944;13.624;2022-08-03T02:45:05;1.50;;;0.93;;
52041;SDS011;38052;45.944;13.624;2022-08-03T02:47:33;2.70;;;1.05;;
52041;SDS011;38052;45.944;13.624;2022-08-03T02:50:01;2.35;;;1.10;;
52041;SDS011;38052;45.944;13.624;2022-08-03T02:52:28;1.55;;;0.80;;
52041;SDS011;38052;45.944;13.624;2022-08-03T02:54:58;1.45;;;1.08;;
52041;SDS011;38052;45.944;13.624;2022-08-03T02:57:29;2.55;;;1.13;;
52041;SDS011;38052;45.944;13.624;2022-08-03T02:59:56;2.92;;;0.98;;
52041;SDS011;38052;45.944;13.624;2022-08-03T03:02:23;4.97;;;1.30;;
52041;SDS011;38052;45.944;13.624;2022-08-03T03:04:50;2.80;;;0.85;;
52041;SDS011;38052;45.944;13.624;2022-08-03T03:07:17;2.70;;;1.10;;
52041;SDS011;38052;45.944;13.624;2022-08-03T03:09:44;2.97;;;1.02;;
52041;SDS011;38052;45.944;13.624;2022-08-03T03:12:12;4.63;;;0.93;;
52041;SDS011;38052;45.944;13.624;2022-08-03T03:14:39;3.17;;;1.17;;
52041;SDS011;38052;45.944;13.624;2022-08-03T03:17:06;1.92;;;1.08;;
52041;SDS011;38052;45.944;13.624;2022-08-03T03:19:34;3.08;;;1.10;;
52041;SDS011;38052;45.944;13.624;2022-08-03T03:22:12;4.07;;;1.27;;
52041;SDS011;38052;45.944;13.624;2022-08-03T03:24:39;2.17;;;1.00;;
52041;SDS011;38052;45.944;13.624;2022-08-03T03:27:06;1.63;;;1.08;;
52041;SDS011;38052;45.944;13.624;2022-08-03T03:29:33;1.90;;;1.17;;
52041;SDS011;38052;45.944;13.624;2022-08-03T03:32:00;1.58;;;0.77;;
52041;SDS011;38052;45.944;13.624;2022-08-03T03:34:27;4.53;;;1.35;;
52041;SDS011;38052;45.944;13.624;2022-08-03T03:36:54;3.92;;;1.15;;
52041;SDS011;38052;45.944;13.624;2022-08-03T03:39:21;1.55;;;1.00;;
52041;SDS011;38052;45.944;13.624;2022-08-03T03:41:47;2.42;;;1.45;;
52041;SDS011;38052;45.944;13.624;2022-08-03T03:44:27;1.30;;;0.82;;
52041;SDS011;38052;45.944;13.624;2022-08-03T03:46:54;1.67;;;0.98;;
52041;SDS011;38052;45.944;13.624;2022-08-03T03:49:21;3.20;;;1.10;;
52041;SDS011;38052;45.944;13.624;2022-08-03T03:51:47;2.55;;;1.42;;
52041;SDS011;38052;45.944;13.624;2022-08-03T03:54:14;2.20;;;1.17;;
52041;SDS011;38052;45.944;13.624;2022-08-03T03:56:41;3.00;;;0.95;;
52041;SDS011;38052;45.944;13.624;2022-08-03T03:59:07;1.48;;;1.20;;
52041;SDS011;38052;45.944;13.624;2022-08-03T04:01:34;2.70;;;1.08;;
52041;SDS011;38052;45.944;13.624;2022-08-03T04:04:01;1.80;;;1.08;;
52041;SDS011;38052;45.944;13.624;2022-08-03T04:06:47;2.30;;;1.20;;
52041;SDS011;38052;45.944;13.624;2022-08-03T04:09:32;2.45;;;1.00;;
52041;SDS011;38052;45.944;13.624;2022-08-03T04:12:17;2.38;;;1.15;;
52041;SDS011;38052;45.944;13.624;2022-08-03T04:14:44;3.17;;;1.15;;
52041;SDS011;38052;45.944;13.624;2022-08-03T04:17:11;1.02;;;0.77;;
52041;SDS011;38052;45.944;13.624;2022-08-03T04:19:42;1.60;;;1.13;;
52041;SDS011;38052;45.944;13.624;2022-08-03T04:22:10;1.90;;;1.00;;
52041;SDS011;38052;45.944;13.624;2022-08-03T04:24:38;2.70;;;0.90;;
52041;SDS011;38052;45.944;13.624;2022-08-03T04:27:07;2.15;;;0.82;;
52041;SDS011;38052;45.944;13.624;2022-08-03T04:29:35;1.70;;;0.80;;
52041;SDS011;38052;45.944;13.624;2022-08-03T04:32:02;5.03;;;0.90;;
52041;SDS011;38052;45.944;13.624;2022-08-03T04:34:30;2.72;;;1.40;;
52041;SDS011;38052;45.944;13.624;2022-08-03T04:36:58;1.38;;;1.13;;
52041;SDS011;38052;45.944;13.624;2022-08-03T04:39:35;1.70;;;1.38;;
52041;SDS011;38052;45.944;13.624;2022-08-03T04:42:02;1.65;;;1.10;;
52041;SDS011;38052;45.944;13.624;2022-08-03T04:44:29;2.53;;;0.90;;
52041;SDS011;38052;45.944;13.624;2022-08-03T04:46:56;2.65;;;1.10;;
52041;SDS011;38052;45.944;13.624;2022-08-03T04:49:23;2.20;;;1.23;;
52041;SDS011;38052;45.944;13.624;2022-08-03T04:51:50;4.43;;;1.55;;
52041;SDS011;38052;45.944;13.624;2022-08-03T04:54:17;2.03;;;0.98;;
52041;SDS011;38052;45.944;13.624;2022-08-03T04:56:43;1.55;;;0.93;;
52041;SDS011;38052;45.944;13.624;2022-08-03T04:59:10;2.35;;;0.95;;
52041;SDS011;38052;45.944;13.624;2022-08-03T05:01:38;1.98;;;1.17;;
52041;SDS011;38052;45.944;13.624;2022-08-03T05:04:05;2.65;;;1.10;;
52041;SDS011;38052;45.944;13.624;2022-08-03T05:06:31;3.50;;;1.55;;
52041;SDS011;38052;45.944;13.624;2022-08-03T05:08:57;2.92;;;1.27;;
52041;SDS011;38052;45.944;13.624;2022-08-03T05:11:24;1.23;;;0.77;;
52041;SDS011;38052;45.944;13.624;2022-08-03T05:13:50;4.82;;;1.38;;
52041;SDS011;38052;45.944;13.624;2022-08-03T05:16:16;3.90;;;1.30;;
52041;SDS011;38052;45.944;13.624;2022-08-03T05:18:43;1.35;;;0.95;;
52041;SDS011;38052;45.944;13.624;2022-08-03T05:21:10;5.63;;;1.17;;
52041;SDS011;38052;45.944;13.624;2022-08-03T05:23:38;2.17;;;0.90;;
52041;SDS011;38052;45.944;13.624;2022-08-03T05:26:05;3.97;;;1.55;;
52041;SDS011;38052;45.944;13.624;2022-08-03T05:28:31;2.50;;;0.95;;
52041;SDS011;38052;45.944;13.624;2022-08-03T05:30:58;4.85;;;1.20;;
52041;SDS011;38052;45.944;13.624;2022-08-03T05:33:24;4.35;;;1.65;;
52041;SDS011;38052;45.944;13.624;2022-08-03T05:35:51;2.03;;;1.17;;
52041;SDS011;38052;45.944;13.624;2022-08-03T05:38:17;3.17;;;1.30;;
52041;SDS011;38052;45.944;13.624;2022-08-03T05:40:43;5.55;;;1.60;;
52041;SDS011;38052;45.944;13.624;2022-08-03T05:43:10;2.05;;;0.90;;
52041;SDS011;38052;45.944;13.624;2022-08-03T05:45:37;6.85;;;1.33;;
52041;SDS011;38052;45.944;13.624;2022-08-03T05:48:04;8.57;;;1.30;;
52041;SDS011;38052;45.944;13.624;2022-08-03T05:50:30;5.47;;;1.48;;
52041;SDS011;38052;45.944;13.624;2022-08-03T05:52:56;1.88;;;1.10;;
52041;SDS011;38052;45.944;13.624;2022-08-03T05:55:22;1.98;;;1.02;;
52041;SDS011;38052;45.944;13.624;2022-08-03T05:57:49;12.55;;;1.50;;
52041;SDS011;38052;45.944;13.624;2022-08-03T06:00:15;2.33;;;1.23;;
52041;SDS011;38052;45.944;13.624;2022-08-03T06:02:42;3.40;;;1.00;;
52041;SDS011;38052;45.944;13.624;2022-08-03T06:05:08;4.50;;;1.60;;
52041;SDS011;38052;45.944;13.624;2022-08-03T06:07:34;4.18;;;1.33;;
52041;SDS011;38052;45.944;13.624;2022-08-03T06:10:00;4.28;;;0.85;;
52041;SDS011;38052;45.944;13.624;2022-08-03T06:12:27;3.45;;;1.08;;
52041;SDS011;38052;45.944;13.624;2022-08-03T06:14:54;4.43;;;1.23;;
52041;SDS011;38052;45.944;13.624;2022-08-03T06:17:20;3.58;;;1.30;;
52041;SDS011;38052;45.944;13.624;2022-08-03T06:19:47;2.85;;;1.00;;
52041;SDS011;38052;45.944;13.624;2022-08-03T06:22:13;2.00;;;1.10;;
52041;SDS011;38052;45.944;13.624;2022-08-03T06:24:40;1.38;;;0.93;;
52041;SDS011;38052;45.944;13.624;2022-08-03T06:27:06;5.75;;;0.85;;
52041;SDS011;38052;45.944;13.624;2022-08-03T06:29:33;7.30;;;0.90;;
52041;SDS011;38052;45.944;13.624;2022-08-03T06:32:00;2.05;;;1.10;;
52041;SDS011;38052;45.944;13.624;2022-08-03T06:34:26;1.92;;;0.85;;
52041;SDS011;38052;45.944;13.624;2022-08-03T06:36:52;4.30;;;0.73;;
52041;SDS011;38052;45.944;13.624;2022-08-03T06:39:19;2.67;;;0.85;;
52041;SDS011;38052;45.944;13.624;2022-08-03T06:41:46;2.53;;;0.98;;
52041;SDS011;38052;45.944;13.624;2022-08-03T06:44:13;5.15;;;1.05;;
52041;SDS011;38052;45.944;13.624;2022-08-03T06:46:39;3.35;;;0.82;;
52041;SDS011;38052;45.944;13.624;2022-08-03T06:49:05;3.10;;;1.15;;
52041;SDS011;38052;45.944;13.624;2022-08-03T06:51:31;2.78;;;1.30;;
52041;SDS011;38052;45.944;13.624;2022-08-03T06:53:58;1.73;;;0.77;;
52041;SDS011;38052;45.944;13.624;2022-08-03T06:56:24;1.83;;;0.80;;
52041;SDS011;38052;45.944;13.624;2022-08-03T06:58:51;3.45;;;1.02;;
52041;SDS011;38052;45.944;13.624;2022-08-03T07:01:17;1.58;;;1.15;;
52041;SDS011;38052;45.944;13.624;2022-08-03T07:03:44;2.30;;;1.05;;
52041;SDS011;38052;45.944;13.624;2022-08-03T07:06:11;2.47;;;0.80;;
52041;SDS011;38052;45.944;13.624;2022-08-03T07:08:37;4.05;;;0.95;;
52041;SDS011;38052;45.944;13.624;2022-08-03T07:11:03;4.05;;;0.85;;
52041;SDS011;38052;45.944;13.624;2022-08-03T07:13:30;2.80;;;0.90;;
52041;SDS011;38052;45.944;13.624;2022-08-03T07:15:57;0.93;;;0.80;;
52041;SDS011;38052;45.944;13.624;2022-08-03T07:18:24;4.55;;;1.20;;
52041;SDS011;38052;45.944;13.624;2022-08-03T07:20:50;2.53;;;0.73;;
52041;SDS011;38052;45.944;13.624;2022-08-03T07:23:17;5.47;;;1.58;;
52041;SDS011;38052;45.944;13.624;2022-08-03T07:25:43;4.20;;;1.33;;
52041;SDS011;38052;45.944;13.624;2022-08-03T07:28:09;1.73;;;0.70;;
52041;SDS011;38052;45.944;13.624;2022-08-03T07:30:36;4.70;;;1.00;;
52041;SDS011;38052;45.944;13.624;2022-08-03T07:33:02;7.90;;;1.08;;
52041;SDS011;38052;45.944;13.624;2022-08-03T07:35:29;1.67;;;0.88;;
52041;SDS011;38052;45.944;13.624;2022-08-03T07:37:55;3.80;;;0.98;;
52041;SDS011;38052;45.944;13.624;2022-08-03T07:40:22;3.78;;;0.95;;
52041;SDS011;38052;45.944;13.624;2022-08-03T07:42:49;0.80;;;0.70;;
52041;SDS011;38052;45.944;13.624;2022-08-03T07:45:15;1.73;;;0.73;;
52041;SDS011;38052;45.944;13.624;2022-08-03T07:47:43;2.47;;;0.60;;
52041;SDS011;38052;45.944;13.624;2022-08-03T07:50:09;2.25;;;1.00;;
52041;SDS011;38052;45.944;13.624;2022-08-03T07:52:36;2.58;;;0.75;;
52041;SDS011;38052;45.944;13.624;2022-08-03T07:55:16;1.50;;;0.60;;
52041;SDS011;38052;45.944;13.624;2022-08-03T07:57:43;1.80;;;0.70;;
52041;SDS011;38052;45.944;13.624;2022-08-03T08:00:14;1.50;;;0.70;;
52041;SDS011;38052;45.944;13.624;2022-08-03T08:02:41;1.30;;;0.60;;
52041;SDS011;38052;45.944;13.624;2022-08-03T08:05:07;1.27;;;0.50;;
52041;SDS011;38052;45.944;13.624;2022-08-03T08:07:35;1.30;;;0.50;;
52041;SDS011;38052;45.944;13.624;2022-08-03T08:10:02;2.08;;;0.50;;
52041;SDS011;38052;45.944;13.624;2022-08-03T08:12:29;3.78;;;0.70;;
52041;SDS011;38052;45.944;13.624;2022-08-03T08:14:56;1.92;;;0.63;;
52041;SDS011;38052;45.944;13.624;2022-08-03T08:17:22;0.88;;;0.63;;
52041;SDS011;38052;45.944;13.624;2022-08-03T08:19:48;2.80;;;0.50;;
52041;SDS011;38052;45.944;13.624;2022-08-03T08:22:15;1.13;;;0.40;;
52041;SDS011;38052;45.944;13.624;2022-08-03T08:24:41;1.35;;;0.70;;
52041;SDS011;38052;45.944;13.624;2022-08-03T08:27:08;1.23;;;0.57;;
52041;SDS011;38052;45.944;13.624;2022-08-03T08:29:36;1.25;;;0.40;;
52041;SDS011;38052;45.944;13.624;2022-08-03T08:32:02;2.90;;;0.43;;
52041;SDS011;38052;45.944;13.624;2022-08-03T08:34:28;2.25;;;0.70;;
52041;SDS011;38052;45.944;13.624;2022-08-03T08:36:55;0.95;;;0.57;;
52041;SDS011;38052;45.944;13.624;2022-08-03T08:39:21;2.42;;;0.90;;
52041;SDS011;38052;45.944;13.624;2022-08-03T08:41:50;3.45;;;0.77;;
52041;SDS011;38052;45.944;13.624;2022-08-03T08:44:17;4.40;;;1.07;;
52041;SDS011;38052;45.944;13.624;2022-08-03T08:46:43;2.53;;;0.63;;
52041;SDS011;38052;45.944;13.624;2022-08-03T08:49:10;1.48;;;0.50;;
52041;SDS011;38052;45.944;13.624;2022-08-03T08:51:37;2.35;;;0.80;;
52041;SDS011;38052;45.944;13.624;2022-08-03T08:54:06;3.03;;;0.60;;
52041;SDS011;38052;45.944;13.624;2022-08-03T08:56:33;3.10;;;0.60;;
52041;SDS011;38052;45.944;13.624;2022-08-03T08:59:01;3.10;;;0.73;;
52041;SDS011;38052;45.944;13.624;2022-08-03T09:01:27;3.38;;;0.57;;
52041;SDS011;38052;45.944;13.624;2022-08-03T09:03:53;0.95;;;0.40;;
52041;SDS011;38052;45.944;13.624;2022-08-03T09:06:20;0.45;;;0.30;;
52041;SDS011;38052;45.944;13.624;2022-08-03T09:08:47;1.15;;;0.60;;
52041;SDS011;38052;45.944;13.624;2022-08-03T09:11:14;1.50;;;0.50;;
52041;SDS011;38052;45.944;13.624;2022-08-03T09:13:40;0.80;;;0.40;;
52041;SDS011;38052;45.944;13.624;2022-08-03T09:16:17;1.83;;;0.70;;
52041;SDS011;38052;45.944;13.624;2022-08-03T09:18:47;1.40;;;0.60;;
52041;SDS011;38052;45.944;13.624;2022-08-03T09:21:21;2.03;;;0.57;;
52041;SDS011;38052;45.944;13.624;2022-08-03T09:23:49;1.52;;;0.88;;
52041;SDS011;38052;45.944;13.624;2022-08-03T09:26:19;3.22;;;0.70;;
52041;SDS011;38052;45.944;13.624;2022-08-03T09:28:45;2.28;;;0.68;;
52041;SDS011;38052;45.944;13.624;2022-08-03T09:31:11;1.95;;;0.52;;
52041;SDS011;38052;45.944;13.624;2022-08-03T09:33:47;1.00;;;0.50;;
52041;SDS011;38052;45.944;13.624;2022-08-03T09:39:02;2.58;;;0.90;;
52041;SDS011;38052;45.944;13.624;2022-08-03T09:41:30;1.27;;;0.52;;
52041;SDS011;38052;45.944;13.624;2022-08-03T09:43:56;0.70;;;0.38;;
52041;SDS011;38052;45.944;13.624;2022-08-03T09:46:22;2.30;;;0.50;;
52041;SDS011;38052;45.944;13.624;2022-08-03T09:48:49;3.35;;;0.57;;
52041;SDS011;38052;45.944;13.624;2022-08-03T09:51:15;1.13;;;0.90;;
52041;SDS011;38052;45.944;13.624;2022-08-03T09:53:43;2.15;;;0.70;;
52041;SDS011;38052;45.944;13.624;2022-08-03T09:56:10;1.17;;;0.43;;
52041;SDS011;38052;45.944;13.624;2022-08-03T09:58:46;2.55;;;0.35;;
52041;SDS011;38052;45.944;13.624;2022-08-03T10:01:12;1.90;;;0.65;;
52041;SDS011;38052;45.944;13.624;2022-08-03T10:03:39;0.85;;;0.40;;
52041;SDS011;38052;45.944;13.624;2022-08-03T10:06:14;0.77;;;0.50;;
52041;SDS011;38052;45.944;13.624;2022-08-03T10:08:41;0.77;;;0.50;;
52041;SDS011;38052;45.944;13.624;2022-08-03T10:11:07;1.35;;;0.50;;
52041;SDS011;38052;45.944;13.624;2022-08-03T10:13:34;3.05;;;0.70;;
52041;SDS011;38052;45.944;13.624;2022-08-03T10:16:01;0.82;;;0.32;;
52041;SDS011;38052;45.944;13.624;2022-08-03T10:18:28;1.35;;;0.63;;
52041;SDS011;38052;45.944;13.624;2022-08-03T10:20:58;1.60;;;0.47;;
52041;SDS011;38052;45.944;13.624;2022-08-03T10:23:27;1.75;;;0.63;;
52041;SDS011;38052;45.944;13.624;2022-08-03T10:25:57;1.75;;;0.90;;
52041;SDS011;38052;45.944;13.624;2022-08-03T10:28:25;1.08;;;0.38;;
52041;SDS011;38052;45.944;13.624;2022-08-03T10:30:53;2.63;;;0.60;;
52041;SDS011;38052;45.944;13.624;2022-08-03T10:33:21;1.55;;;0.40;;
52041;SDS011;38052;45.944;13.624;2022-08-03T10:35:52;1.92;;;0.60;;
52041;SDS011;38052;45.944;13.624;2022-08-03T10:38:21;2.03;;;0.45;;
52041;SDS011;38052;45.944;13.624;2022-08-03T10:40:49;0.43;;;0.22;;
52041;SDS011;38052;45.944;13.624;2022-08-03T10:43:20;1.17;;;0.38;;
52041;SDS011;38052;45.944;13.624;2022-08-03T10:45:47;2.47;;;0.40;;
52041;SDS011;38052;45.944;13.624;2022-08-03T10:48:13;0.95;;;0.32;;
52041;SDS011;38052;45.944;13.624;2022-08-03T10:50:40;0.65;;;0.50;;
52041;SDS011;38052;45.944;13.624;2022-08-03T10:53:08;1.83;;;0.43;;
52041;SDS011;38052;45.944;13.624;2022-08-03T10:55:38;0.68;;;0.40;;
52041;SDS011;38052;45.944;13.624;2022-08-03T11:01:11;1.23;;;0.43;;
52041;SDS011;38052;45.944;13.624;2022-08-03T11:06:18;0.50;;;0.40;;
52041;SDS011;38052;45.944;13.624;2022-08-03T11:08:44;1.75;;;0.40;;
52041;SDS011;38052;45.944;13.624;2022-08-03T11:13:57;1.95;;;0.40;;
52041;SDS011;38052;45.944;13.624;2022-08-03T11:16:24;1.40;;;0.70;;
52041;SDS011;38052;45.944;13.624;2022-08-03T11:18:55;1.23;;;0.20;;
52041;SDS011;38052;45.944;13.624;2022-08-03T11:21:50;0.57;;;0.47;;
52041;SDS011;38052;45.944;13.624;2022-08-03T11:24:08;3.00;;;0.38;;
52041;SDS011;38052;45.944;13.624;2022-08-03T11:26:35;1.13;;;0.40;;
52041;SDS011;38052;45.944;13.624;2022-08-03T11:31:46;0.73;;;0.40;;
52041;SDS011;38052;45.944;13.624;2022-08-03T11:34:13;1.23;;;0.75;;
52041;SDS011;38052;45.944;13.624;2022-08-03T11:39:47;0.55;;;0.30;;
52041;SDS011;38052;45.944;13.624;2022-08-03T11:44:54;0.35;;;0.30;;
52041;SDS011;38052;45.944;13.624;2022-08-03T11:47:21;2.47;;;0.50;;
52041;SDS011;38052;45.944;13.624;2022-08-03T11:49:49;1.80;;;0.45;;
52041;SDS011;38052;45.944;13.624;2022-08-03T11:52:16;0.75;;;0.30;;
52041;SDS011;38052;45.944;13.624;2022-08-03T11:54:43;1.70;;;0.40;;
52041;SDS011;38052;45.944;13.624;2022-08-03T11:57:10;2.75;;;0.63;;
52041;SDS011;38052;45.944;13.624;2022-08-03T11:59:36;0.40;;;0.30;;
52041;SDS011;38052;45.944;13.624;2022-08-03T12:02:07;1.45;;;0.40;;
52041;SDS011;38052;45.944;13.624;2022-08-03T12:07:18;0.60;;;0.40;;
52041;SDS011;38052;45.944;13.624;2022-08-03T12:12:54;1.67;;;0.32;;
52041;SDS011;38052;45.944;13.624;2022-08-03T12:15:27;1.65;;;0.30;;
52041;SDS011;38052;45.944;13.624;2022-08-03T12:17:54;0.40;;;0.20;;
52041;SDS011;38052;45.944;13.624;2022-08-03T12:20:24;0.85;;;0.40;;
52041;SDS011;38052;45.944;13.624;2022-08-03T12:22:50;0.70;;;0.30;;
52041;SDS011;38052;45.944;13.624;2022-08-03T12:25:21;0.70;;;0.25;;
52041;SDS011;38052;45.944;13.624;2022-08-03T12:27:47;0.40;;;0.20;;
52041;SDS011;38052;45.944;13.624;2022-08-03T12:30:14;1.75;;;0.28;;
52041;SDS011;38052;45.944;13.624;2022-08-03T12:32:41;0.60;;;0.30;;
52041;SDS011;38052;45.944;13.624;2022-08-03T12:35:07;1.13;;;0.30;;
52041;SDS011;38052;45.944;13.624;2022-08-03T12:37:34;1.38;;;0.30;;
52041;SDS011;38052;45.944;13.624;2022-08-03T12:40:01;2.72;;;0.40;;
52041;SDS011;38052;45.944;13.624;2022-08-03T12:42:30;0.88;;;0.20;;
52041;SDS011;38052;45.944;13.624;2022-08-03T12:44:56;2.13;;;0.35;;
52041;SDS011;38052;45.944;13.624;2022-08-03T12:47:23;1.48;;;0.40;;
52041;SDS011;38052;45.944;13.624;2022-08-03T12:49:50;1.95;;;0.40;;
52041;SDS011;38052;45.944;13.624;2022-08-03T12:52:17;0.63;;;0.25;;
52041;SDS011;38052;45.944;13.624;2022-08-03T12:54:54;1.85;;;0.93;;
52041;SDS011;38052;45.944;13.624;2022-08-03T12:57:20;0.40;;;0.20;;
52041;SDS011;38052;45.944;13.624;2022-08-03T12:59:47;0.77;;;0.28;;
52041;SDS011;38052;45.944;13.624;2022-08-03T13:02:17;1.40;;;0.55;;
52041;SDS011;38052;45.944;13.624;2022-08-03T13:04:43;0.40;;;0.30;;
52041;SDS011;38052;45.944;13.624;2022-08-03T13:07:10;1.27;;;0.30;;
52041;SDS011;38052;45.944;13.624;2022-08-03T13:09:44;1.73;;;0.43;;
52041;SDS011;38052;45.944;13.624;2022-08-03T13:12:21;1.08;;;0.40;;
52041;SDS011;38052;45.944;13.624;2022-08-03T13:14:48;0.85;;;0.40;;
52041;SDS011;38052;45.944;13.624;2022-08-03T13:17:15;0.38;;;0.35;;
52041;SDS011;38052;45.944;13.624;2022-08-03T13:19:42;0.85;;;0.40;;
52041;SDS011;38052;45.944;13.624;2022-08-03T13:22:13;1.25;;;0.38;;
52041;SDS011;38052;45.944;13.624;2022-08-03T13:24:40;0.95;;;0.45;;
52041;SDS011;38052;45.944;13.624;2022-08-03T13:27:06;0.77;;;0.30;;
52041;SDS011;38052;45.944;13.624;2022-08-03T13:29:33;1.83;;;0.52;;
52041;SDS011;38052;45.944;13.624;2022-08-03T13:32:00;1.45;;;0.43;;
52041;SDS011;38052;45.944;13.624;2022-08-03T13:34:26;0.98;;;0.30;;
52041;SDS011;38052;45.944;13.624;2022-08-03T13:36:53;1.05;;;0.50;;
52041;SDS011;38052;45.944;13.624;2022-08-03T13:39:20;1.17;;;0.40;;
52041;SDS011;38052;45.944;13.624;2022-08-03T13:41:48;1.98;;;0.52;;
52041;SDS011;38052;45.944;13.624;2022-08-03T13:44:15;1.55;;;0.68;;
52041;SDS011;38052;45.944;13.624;2022-08-03T13:46:41;3.42;;;0.40;;
52041;SDS011;38052;45.944;13.624;2022-08-03T13:49:08;0.90;;;0.45;;
52041;SDS011;38052;45.944;13.624;2022-08-03T13:51:34;3.63;;;0.65;;
52041;SDS011;38052;45.944;13.624;2022-08-03T13:54:00;2.08;;;0.63;;
52041;SDS011;38052;45.944;13.624;2022-08-03T13:56:27;3.42;;;0.60;;
52041;SDS011;38052;45.944;13.624;2022-08-03T13:58:54;0.77;;;0.40;;
52041;SDS011;38052;45.944;13.624;2022-08-03T14:01:21;2.00;;;0.30;;
52041;SDS011;38052;45.944;13.624;2022-08-03T14:03:47;1.73;;;0.40;;
52041;SDS011;38052;45.944;13.624;2022-08-03T14:06:18;3.67;;;0.50;;
52041;SDS011;38052;45.944;13.624;2022-08-03T14:08:44;2.03;;;0.60;;
52041;SDS011;38052;45.944;13.624;2022-08-03T14:11:12;3.70;;;0.63;;
52041;SDS011;38052;45.944;13.624;2022-08-03T14:13:38;2.97;;;0.50;;
52041;SDS011;38052;45.944;13.624;2022-08-03T14:16:05;0.90;;;0.50;;
52041;SDS011;38052;45.944;13.624;2022-08-03T14:18:31;1.35;;;0.50;;
52041;SDS011;38052;45.944;13.624;2022-08-03T14:20:58;1.60;;;0.57;;
52041;SDS011;38052;45.944;13.624;2022-08-03T14:23:25;2.15;;;0.43;;
52041;SDS011;38052;45.944;13.624;2022-08-03T14:25:51;3.38;;;0.50;;
52041;SDS011;38052;45.944;13.624;2022-08-03T14:28:19;3.22;;;0.32;;
52041;SDS011;38052;45.944;13.624;2022-08-03T14:30:46;3.10;;;0.60;;
52041;SDS011;38052;45.944;13.624;2022-08-03T14:33:13;1.83;;;0.40;;
52041;SDS011;38052;45.944;13.624;2022-08-03T14:35:39;1.10;;;0.73;;
52041;SDS011;38052;45.944;13.624;2022-08-03T14:38:06;2.47;;;0.57;;
52041;SDS011;38052;45.944;13.624;2022-08-03T14:40:32;1.58;;;0.52;;
52041;SDS011;38052;45.944;13.624;2022-08-03T14:42:58;0.75;;;0.50;;
52041;SDS011;38052;45.944;13.624;2022-08-03T14:45:24;1.25;;;0.40;;
52041;SDS011;38052;45.944;13.624;2022-08-03T14:47:50;1.23;;;0.40;;
52041;SDS011;38052;45.944;13.624;2022-08-03T14:50:17;1.92;;;0.40;;
52041;SDS011;38052;45.944;13.624;2022-08-03T14:52:44;2.95;;;0.90;;
52041;SDS011;38052;45.944;13.624;2022-08-03T14:55:10;0.77;;;0.45;;
52041;SDS011;38052;45.944;13.624;2022-08-03T14:57:37;1.05;;;0.63;;
52041;SDS011;38052;45.944;13.624;2022-08-03T15:00:03;1.60;;;0.40;;
52041;SDS011;38052;45.944;13.624;2022-08-03T15:02:30;0.93;;;0.40;;
52041;SDS011;38052;45.944;13.624;2022-08-03T15:04:57;0.93;;;0.40;;
52041;SDS011;38052;45.944;13.624;2022-08-03T15:07:23;0.57;;;0.50;;